Triumph — V7KW4 — position and weather

sailwx.info

Track history (hours):
 
Tides and Currents Weather Stations Pressure Air Temp Water Temp Dewpoint Dewpoint Depression Visibility Wind Speed Wind Dir Waves Ship Positions

Triumph

Last reported at 2018-Feb-07 21:11 UTC. Time now 2018-Feb-24 06:15 UTC.
Position N 26°54' W 080°04'.
Warning: this ship's position is 16 days out of date.

Type: Cargo ship. MMSI: 538002687.

Date/timePositionNaut miles runAvg speedWind from/ knotsBaromVisibWave heightAir tempDewpointWater temp
2018-Feb-07 21:11N 26°54' W 080°04'4 0.3
2018-Feb-07 09:29N 26°50' W 080°03'0 0.0
2018-Feb-07 09:00N 26°50' W 080°03'0 0.0
2018-Feb-07 08:28N 26°50' W 080°03'0 0.0
2018-Feb-07 08:00N 26°50' W 080°03'0 0.0
2018-Feb-07 07:30N 26°50' W 080°03'0 0.0
2018-Feb-07 06:58N 26°50' W 080°03'0 0.0
2018-Feb-07 06:30N 26°50' W 080°03'0 0.0
2018-Feb-07 05:59N 26°50' W 080°03'0 0.0
2018-Feb-07 05:29N 26°50' W 080°03'0 0.0
2018-Feb-07 05:00N 26°50' W 080°03'0 0.0
2018-Feb-07 04:29N 26°50' W 080°03'0 0.0
2018-Feb-06 14:45N 26°50' W 080°03'0 0.0
2018-Feb-06 14:25N 26°50' W 080°03'  
2018-Jan-31 19:58N 26°52' W 080°04'2 5.4
2018-Jan-31 19:31N 26°54' W 080°05'3 5.9
2018-Jan-31 19:00N 26°57' W 080°05'2 4.4
2018-Jan-31 18:30N 26°59' W 080°05'2 4.9
2018-Jan-31 18:00N 26°57' W 080°05'4 7.2
2018-Jan-31 17:30N 26°53' W 080°04'4 4.1
2018-Jan-31 16:37N 26°50' W 080°03'1 3.3
2018-Jan-31 16:28N 26°50' W 080°03'0 0.2
2018-Jan-31 14:39N 26°50' W 080°03'0 0.0
2018-Jan-31 14:29N 26°50' W 080°03'0 0.0
2018-Jan-31 12:59N 26°50' W 080°03'0 0.0
2018-Jan-31 12:28N 26°50' W 080°03'0 0.0
2018-Jan-31 10:24N 26°50' W 080°03'0 0.0
2018-Jan-31 08:57N 26°50' W 080°03'0 0.0
2018-Jan-31 08:30N 26°50' W 080°03'0 0.0
2018-Jan-31 08:00N 26°50' W 080°03'0 0.0
2018-Jan-31 07:25N 26°50' W 080°03'0 0.0
2018-Jan-31 06:49N 26°50' W 080°03'0 0.0
2018-Jan-31 06:08N 26°50' W 080°03'0 0.0
2018-Jan-31 05:54N 26°50' W 080°03'0 0.0
2018-Jan-30 13:30N 26°50' W 080°03'0 0.0
2018-Jan-30 12:57N 26°50' W 080°03'0 0.0
2018-Jan-30 12:30N 26°50' W 080°03'0 0.0
2018-Jan-30 12:00N 26°50' W 080°03'0 0.0
2018-Jan-30 11:24N 26°50' W 080°03'0 0.0
2018-Jan-30 09:18N 26°50' W 080°03'0 0.0
2018-Jan-30 08:53N 26°50' W 080°03'0 0.0
2018-Jan-30 08:30N 26°50' W 080°03'0 0.0
2018-Jan-30 07:59N 26°50' W 080°03'0 0.0
2018-Jan-30 07:24N 26°50' W 080°03'0 0.0
2018-Jan-30 06:59N 26°50' W 080°03'0 0.0
2018-Jan-30 06:25N 26°50' W 080°03'0 0.0
2018-Jan-30 05:59N 26°50' W 080°03'0 0.0
2018-Jan-30 05:25N 26°50' W 080°03'0 0.0
2018-Jan-30 04:57N 26°50' W 080°03'0 0.0
2018-Jan-30 04:30N 26°50' W 080°03'0 0.0
2018-Jan-30 03:23N 26°50' W 080°03'0 0.0
2018-Jan-30 02:56N 26°50' W 080°03'0 0.0
2018-Jan-30 02:22N 26°50' W 080°03'0 0.0
2018-Jan-30 01:58N 26°50' W 080°03'0 0.0
2018-Jan-30 01:29N 26°50' W 080°03'0 0.0
2018-Jan-29 12:44N 26°50' W 080°03'0 0.0
2018-Jan-29 12:28N 26°50' W 080°03'0 0.0
2018-Jan-29 09:15N 26°50' W 080°03'0 0.0
2018-Jan-29 08:59N 26°50' W 080°03'0 0.0
2018-Jan-29 08:29N 26°50' W 080°03'0 0.0
2018-Jan-29 08:00N 26°50' W 080°03'0 0.0
2018-Jan-29 07:23N 26°50' W 080°03'0 0.0
2018-Jan-29 06:57N 26°50' W 080°03'0 0.0
2018-Jan-29 05:27N 26°50' W 080°03'0 0.0
2018-Jan-28 23:06N 26°50' W 080°03'0 0.0
2018-Jan-28 22:44N 26°50' W 080°03'0 0.0
2018-Jan-28 22:27N 26°50' W 080°03'0 0.0
2018-Jan-28 22:00N 26°50' W 080°03'0 0.0
2018-Jan-28 21:24N 26°50' W 080°03'  
Track history (hours):
 
Tides and Currents Weather Stations Pressure Air Temp Water Temp Dewpoint Dewpoint Depression Visibility Wind Speed Wind Dir Waves Ship Positions

Triumph

Last reported at 2018-Feb-07 21:11 UTC. Time now 2018-Feb-24 06:15 UTC.
Position N 26°54' W 080°04'.
Warning: this ship's position is 16 days out of date.

Type: Cargo ship. MMSI: 538002687.

Date/timePositionNaut miles runAvg speedWind from/ knotsBaromVisibWave heightAir tempDewpointWater temp
2018-Feb-07 21:11N 26°54' W 080°04'4 0.3
2018-Feb-07 09:29N 26°50' W 080°03'0 0.0
2018-Feb-07 09:00N 26°50' W 080°03'0 0.0
2018-Feb-07 08:28N 26°50' W 080°03'0 0.0
2018-Feb-07 08:00N 26°50' W 080°03'0 0.0
2018-Feb-07 07:30N 26°50' W 080°03'0 0.0
2018-Feb-07 06:58N 26°50' W 080°03'0 0.0
2018-Feb-07 06:30N 26°50' W 080°03'0 0.0
2018-Feb-07 05:59N 26°50' W 080°03'0 0.0
2018-Feb-07 05:29N 26°50' W 080°03'0 0.0
2018-Feb-07 05:00N 26°50' W 080°03'0 0.0
2018-Feb-07 04:29N 26°50' W 080°03'0 0.0
2018-Feb-06 14:45N 26°50' W 080°03'0 0.0
2018-Feb-06 14:25N 26°50' W 080°03'  
2018-Jan-31 19:58N 26°52' W 080°04'2 5.4
2018-Jan-31 19:31N 26°54' W 080°05'3 5.9
2018-Jan-31 19:00N 26°57' W 080°05'2 4.4
2018-Jan-31 18:30N 26°59' W 080°05'2 4.9
2018-Jan-31 18:00N 26°57' W 080°05'4 7.2
2018-Jan-31 17:30N 26°53' W 080°04'4 4.1
2018-Jan-31 16:37N 26°50' W 080°03'1 3.3
2018-Jan-31 16:28N 26°50' W 080°03'0 0.2
2018-Jan-31 14:39N 26°50' W 080°03'0 0.0
2018-Jan-31 14:29N 26°50' W 080°03'0 0.0
2018-Jan-31 12:59N 26°50' W 080°03'0 0.0
2018-Jan-31 12:28N 26°50' W 080°03'0 0.0
2018-Jan-31 10:24N 26°50' W 080°03'0 0.0
2018-Jan-31 08:57N 26°50' W 080°03'0 0.0
2018-Jan-31 08:30N 26°50' W 080°03'0 0.0
2018-Jan-31 08:00N 26°50' W 080°03'0 0.0
2018-Jan-31 07:25N 26°50' W 080°03'0 0.0
2018-Jan-31 06:49N 26°50' W 080°03'0 0.0
2018-Jan-31 06:08N 26°50' W 080°03'0 0.0
2018-Jan-31 05:54N 26°50' W 080°03'0 0.0
2018-Jan-30 13:30N 26°50' W 080°03'0 0.0
2018-Jan-30 12:57N 26°50' W 080°03'0 0.0
2018-Jan-30 12:30N 26°50' W 080°03'0 0.0
2018-Jan-30 12:00N 26°50' W 080°03'0 0.0
2018-Jan-30 11:24N 26°50' W 080°03'0 0.0
2018-Jan-30 09:18N 26°50' W 080°03'0 0.0
2018-Jan-30 08:53N 26°50' W 080°03'0 0.0
2018-Jan-30 08:30N 26°50' W 080°03'0 0.0
2018-Jan-30 07:59N 26°50' W 080°03'0 0.0
2018-Jan-30 07:24N 26°50' W 080°03'0 0.0
2018-Jan-30 06:59N 26°50' W 080°03'0 0.0
2018-Jan-30 06:25N 26°50' W 080°03'0 0.0
2018-Jan-30 05:59N 26°50' W 080°03'0 0.0
2018-Jan-30 05:25N 26°50' W 080°03'0 0.0
2018-Jan-30 04:57N 26°50' W 080°03'0 0.0
2018-Jan-30 04:30N 26°50' W 080°03'0 0.0
2018-Jan-30 03:23N 26°50' W 080°03'0 0.0
2018-Jan-30 02:56N 26°50' W 080°03'0 0.0
2018-Jan-30 02:22N 26°50' W 080°03'0 0.0
2018-Jan-30 01:58N 26°50' W 080°03'0 0.0
2018-Jan-30 01:29N 26°50' W 080°03'0 0.0
2018-Jan-29 12:44N 26°50' W 080°03'0 0.0
2018-Jan-29 12:28N 26°50' W 080°03'0 0.0
2018-Jan-29 09:15N 26°50' W 080°03'0 0.0
2018-Jan-29 08:59N 26°50' W 080°03'0 0.0
2018-Jan-29 08:29N 26°50' W 080°03'0 0.0
2018-Jan-29 08:00N 26°50' W 080°03'0 0.0
2018-Jan-29 07:23N 26°50' W 080°03'0 0.0
2018-Jan-29 06:57N 26°50' W 080°03'0 0.0
2018-Jan-29 05:27N 26°50' W 080°03'0 0.0
2018-Jan-28 23:06N 26°50' W 080°03'0 0.0
2018-Jan-28 22:44N 26°50' W 080°03'0 0.0
2018-Jan-28 22:27N 26°50' W 080°03'0 0.0
2018-Jan-28 22:00N 26°50' W 080°03'0 0.0
2018-Jan-28 21:24N 26°50' W 080°03'  

Dump ship's entire track history